createdAt,value
2023-05-24T00:02:23.960Z,3.83
2023-05-24T00:04:50.928Z,3.80
2023-05-24T00:07:17.857Z,4.25
2023-05-24T00:09:45.034Z,3.65
2023-05-24T00:12:12.190Z,3.67
2023-05-24T00:14:39.177Z,3.90
2023-05-24T00:17:06.119Z,3.53
2023-05-24T00:19:33.212Z,3.55
2023-05-24T00:22:00.157Z,3.97
2023-05-24T00:24:27.180Z,3.83
2023-05-24T00:26:54.145Z,4.20
2023-05-24T00:29:21.523Z,4.13
2023-05-24T00:31:48.512Z,4.20
2023-05-24T00:34:15.628Z,3.97
2023-05-24T00:36:42.621Z,4.10
2023-05-24T00:39:09.683Z,3.67
2023-05-24T00:41:36.563Z,4.30
2023-05-24T00:44:03.466Z,4.07
2023-05-24T00:46:34.152Z,4.38
2023-05-24T00:49:02.010Z,4.55
2023-05-24T00:51:29.192Z,4.55
2023-05-24T00:53:56.743Z,4.03
2023-05-24T00:56:23.674Z,4.50
2023-05-24T00:58:56.110Z,3.92
2023-05-24T01:01:26.424Z,3.63
2023-05-24T01:03:54.533Z,4.00
2023-05-24T01:06:22.244Z,3.85
2023-05-24T01:09:14.746Z,4.43
2023-05-24T01:12:20.854Z,4.30
2023-05-24T01:15:01.900Z,4.38
2023-05-24T01:17:51.994Z,4.10
2023-05-24T01:20:21.127Z,4.00
2023-05-24T01:23:06.688Z,4.53
2023-05-24T01:28:02.007Z,3.92
2023-05-24T01:30:29.670Z,4.20
2023-05-24T01:32:56.718Z,4.00
2023-05-24T01:35:23.757Z,4.55
2023-05-24T01:37:50.894Z,4.60
2023-05-24T01:40:18.664Z,4.13
2023-05-24T01:43:04.625Z,4.20
2023-05-24T01:45:44.103Z,4.68
2023-05-24T01:48:24.779Z,4.40
2023-05-24T01:51:05.286Z,4.22
2023-05-24T01:53:39.724Z,3.80
2023-05-24T01:56:07.811Z,4.32
2023-05-24T01:58:36.709Z,4.43
2023-05-24T02:01:04.057Z,4.25
2023-05-24T02:03:31.943Z,4.30
2023-05-24T02:05:58.929Z,4.35
2023-05-24T02:08:25.768Z,4.30
2023-05-24T02:10:52.686Z,4.28
2023-05-24T02:13:20.002Z,4.55
2023-05-24T02:15:48.062Z,4.30
2023-05-24T02:18:15.124Z,4.88
2023-05-24T02:20:42.185Z,3.65
2023-05-24T02:23:09.314Z,4.20
2023-05-24T02:25:36.307Z,4.07
2023-05-24T02:28:03.480Z,4.57
2023-05-24T02:30:30.219Z,4.20
2023-05-24T02:32:57.688Z,4.35
2023-05-24T02:35:24.693Z,4.38
2023-05-24T02:37:51.816Z,5.07
2023-05-24T02:40:18.889Z,5.07
2023-05-24T02:42:45.975Z,4.53
2023-05-24T02:45:13.044Z,5.15
2023-05-24T02:47:40.088Z,5.07
2023-05-24T02:50:07.446Z,4.38
2023-05-24T02:52:34.328Z,4.50
2023-05-24T02:55:01.260Z,4.50
2023-05-24T02:57:29.020Z,4.80
2023-05-24T02:59:56.208Z,5.05
2023-05-24T03:02:23.356Z,4.80
2023-05-24T03:04:50.360Z,5.10
2023-05-24T03:07:17.457Z,5.22
2023-05-24T03:09:44.413Z,5.30
2023-05-24T03:12:11.748Z,5.35
2023-05-24T03:14:38.694Z,5.63
2023-05-24T03:17:05.940Z,4.72
2023-05-24T03:19:32.897Z,5.05
2023-05-24T03:22:11.704Z,4.70
2023-05-24T03:24:38.780Z,5.13
2023-05-24T03:27:06.697Z,5.55
2023-05-24T03:29:33.751Z,4.90
2023-05-24T03:32:00.937Z,4.88
2023-05-24T03:34:27.947Z,5.03
2023-05-24T03:36:56.009Z,4.45
2023-05-24T03:39:22.998Z,5.22
2023-05-24T03:41:49.982Z,4.97
2023-05-24T03:44:16.855Z,5.00
2023-05-24T03:46:43.793Z,4.78
2023-05-24T03:49:10.729Z,5.75
2023-05-24T03:51:37.622Z,5.53
2023-05-24T03:54:04.782Z,5.38
2023-05-24T03:56:31.830Z,4.60
2023-05-24T03:59:01.021Z,4.70
2023-05-24T04:01:34.267Z,4.88
2023-05-24T04:04:02.518Z,4.95
2023-05-24T04:06:30.226Z,4.45
2023-05-24T04:09:01.403Z,5.38
2023-05-24T04:11:29.147Z,5.22
2023-05-24T04:13:57.804Z,5.35
2023-05-24T04:16:26.468Z,5.38
2023-05-24T04:18:56.873Z,5.05
2023-05-24T04:21:24.281Z,5.20
2023-05-24T04:23:51.220Z,5.22
2023-05-24T04:26:18.589Z,4.97
2023-05-24T04:28:48.714Z,5.03
2023-05-24T04:31:16.696Z,5.53
2023-05-24T04:33:44.023Z,5.20
2023-05-24T04:36:12.191Z,5.18
2023-05-24T04:38:41.155Z,5.30
2023-05-24T04:41:08.324Z,5.05
2023-05-24T04:43:35.466Z,5.28
2023-05-24T04:46:03.095Z,5.35
2023-05-24T04:48:30.197Z,5.00
2023-05-24T04:50:58.526Z,4.38
2023-05-24T04:53:27.244Z,4.35
2023-05-24T04:55:54.268Z,5.10
2023-05-24T04:58:21.271Z,4.40
2023-05-24T05:00:48.449Z,4.57
2023-05-24T05:03:21.588Z,4.47
2023-05-24T05:05:48.729Z,4.53
2023-05-24T05:08:15.861Z,4.13
2023-05-24T05:10:42.889Z,3.55
2023-05-24T05:13:09.932Z,3.78
2023-05-24T05:15:36.810Z,4.30
2023-05-24T05:18:04.134Z,3.97
2023-05-24T05:20:31.121Z,3.60
2023-05-24T05:22:58.127Z,3.83
2023-05-24T05:25:25.057Z,4.03
2023-05-24T05:27:52.010Z,3.63
2023-05-24T05:30:19.057Z,3.83
2023-05-24T05:32:46.071Z,4.13
2023-05-24T05:35:13.124Z,3.78
2023-05-24T05:37:40.112Z,3.90
2023-05-24T05:40:07.713Z,3.60
2023-05-24T05:42:34.593Z,3.45
2023-05-24T05:45:01.564Z,4.15
2023-05-24T05:47:28.528Z,4.28
2023-05-24T05:49:55.524Z,3.72
2023-05-24T05:52:24.114Z,3.50
2023-05-24T05:54:51.238Z,4.05
2023-05-24T05:57:24.352Z,3.70
2023-05-24T05:59:51.572Z,3.67
2023-05-24T06:02:24.660Z,3.83
2023-05-24T06:04:51.699Z,4.05
2023-05-24T06:07:18.952Z,3.40
2023-05-24T06:09:45.840Z,3.70
2023-05-24T06:12:13.329Z,4.38
2023-05-24T06:14:40.111Z,4.13
2023-05-24T06:17:07.386Z,3.83
2023-05-24T06:19:34.683Z,4.30
2023-05-24T06:22:02.407Z,4.00
2023-05-24T06:24:29.333Z,3.88
2023-05-24T06:26:56.393Z,3.80
2023-05-24T06:29:25.336Z,3.75
2023-05-24T06:31:52.794Z,3.78
2023-05-24T06:34:23.268Z,3.92
2023-05-24T06:36:51.648Z,3.72
2023-05-24T06:39:19.604Z,4.03
2023-05-24T06:41:47.534Z,3.72
2023-05-24T06:44:16.628Z,3.40
2023-05-24T06:46:43.672Z,4.28
2023-05-24T06:49:10.643Z,4.05
2023-05-24T06:51:41.726Z,4.10
2023-05-24T06:54:08.563Z,3.53
2023-05-24T06:56:38.535Z,3.40
2023-05-24T06:59:05.753Z,3.55
2023-05-24T07:01:36.191Z,3.40
2023-05-24T07:04:03.422Z,3.22
2023-05-24T07:06:30.390Z,3.22
2023-05-24T07:08:57.513Z,2.85
2023-05-24T07:11:36.726Z,3.21
2023-05-24T07:14:03.842Z,3.40
2023-05-24T07:16:30.891Z,3.10
2023-05-24T07:18:58.580Z,2.85
2023-05-24T07:21:25.976Z,2.58
2023-05-24T07:23:53.014Z,2.75
2023-05-24T07:26:19.969Z,3.15
2023-05-24T07:28:46.910Z,2.67
2023-05-24T07:31:14.033Z,3.13
2023-05-24T07:33:42.123Z,2.75
2023-05-24T07:36:09.671Z,3.10
2023-05-24T07:38:36.686Z,2.65
2023-05-24T07:41:04.888Z,2.80
2023-05-24T07:43:32.106Z,2.40
2023-05-24T07:45:59.113Z,3.05
2023-05-24T07:48:26.422Z,2.83
2023-05-24T07:50:57.072Z,2.65
2023-05-24T07:53:24.024Z,2.70
2023-05-24T07:55:52.027Z,3.00
2023-05-24T07:58:19.086Z,2.80
2023-05-24T08:00:47.016Z,2.92
2023-05-24T08:03:15.930Z,3.15
2023-05-24T08:05:43.325Z,2.95
2023-05-24T08:08:10.779Z,3.67
2023-05-24T08:10:37.787Z,3.05
2023-05-24T08:13:08.088Z,3.08
2023-05-24T08:15:35.149Z,3.67
2023-05-24T08:18:02.182Z,3.28
2023-05-24T08:20:29.417Z,3.10
2023-05-24T08:22:57.012Z,3.03
2023-05-24T08:25:24.484Z,3.60
2023-05-24T08:27:52.287Z,2.63
2023-05-24T08:30:20.226Z,2.78
2023-05-24T08:32:47.353Z,3.20
2023-05-24T08:37:44.114Z,3.10
2023-05-24T08:40:11.356Z,2.97
2023-05-24T08:42:39.513Z,3.15
2023-05-24T08:45:12.496Z,2.75
2023-05-24T08:47:41.036Z,2.90
2023-05-24T08:50:08.920Z,3.15
2023-05-24T08:52:37.155Z,3.30
2023-05-24T08:55:05.628Z,2.85
2023-05-24T08:57:35.051Z,2.70
2023-05-24T09:00:02.655Z,3.20
2023-05-24T09:02:30.551Z,2.65
2023-05-24T09:04:58.183Z,2.55
2023-05-24T09:07:26.712Z,2.95
2023-05-24T09:09:58.929Z,2.72
2023-05-24T09:12:36.131Z,2.42
2023-05-24T09:15:05.563Z,3.00
2023-05-24T09:17:33.818Z,2.63
2023-05-24T09:20:02.716Z,2.40
2023-05-24T09:22:31.027Z,2.20
2023-05-24T09:25:00.768Z,2.30
2023-05-24T09:27:28.541Z,2.40
2023-05-24T09:29:57.174Z,2.85
2023-05-24T09:32:24.855Z,2.53
2023-05-24T09:34:56.274Z,2.50
2023-05-24T09:37:31.041Z,2.35
2023-05-24T09:39:59.928Z,2.60
2023-05-24T09:42:29.100Z,2.35
2023-05-24T09:45:09.767Z,2.05
2023-05-24T09:47:38.918Z,2.72
2023-05-24T09:50:14.908Z,2.10
2023-05-24T09:55:14.480Z,2.38
2023-05-24T09:57:41.796Z,2.30
2023-05-24T10:00:20.859Z,2.30
2023-05-24T10:03:01.152Z,2.25
2023-05-24T10:05:28.927Z,1.95
2023-05-24T10:07:57.601Z,2.20
2023-05-24T10:10:29.351Z,2.38
2023-05-24T10:12:57.524Z,2.47
2023-05-24T10:15:39.087Z,2.30
2023-05-24T10:18:11.254Z,2.72
2023-05-24T10:20:42.300Z,2.80
2023-05-24T10:23:10.879Z,2.08
2023-05-24T10:25:45.013Z,2.55
2023-05-24T10:28:14.148Z,2.42
2023-05-24T10:31:12.629Z,2.60
2023-05-24T10:33:43.014Z,2.45
2023-05-24T10:36:12.091Z,2.55
2023-05-24T10:38:42.679Z,2.50
2023-05-24T10:41:10.130Z,2.35
2023-05-24T10:43:37.990Z,2.78
2023-05-24T10:46:08.414Z,2.70
2023-05-24T10:48:37.381Z,2.30
2023-05-24T10:51:37.786Z,2.38
2023-05-24T10:54:16.708Z,2.60
2023-05-24T10:56:48.726Z,2.70
2023-05-24T10:59:37.740Z,2.60
2023-05-24T11:02:15.223Z,2.58
2023-05-24T11:04:46.458Z,2.63
2023-05-24T11:07:19.495Z,2.58
2023-05-24T11:09:53.134Z,2.63
2023-05-24T11:12:23.832Z,3.10
2023-05-24T11:14:53.988Z,2.40
2023-05-24T11:17:23.098Z,2.67
2023-05-24T11:19:53.220Z,2.88
2023-05-24T11:22:22.709Z,2.90
2023-05-24T11:24:58.049Z,2.38
2023-05-24T11:27:25.828Z,2.40
2023-05-24T11:29:53.207Z,2.75
2023-05-24T11:32:21.581Z,2.58
2023-05-24T11:34:49.139Z,2.65
2023-05-24T11:37:38.568Z,3.08
2023-05-24T11:40:13.449Z,2.90
2023-05-24T11:42:41.315Z,2.40
2023-05-24T11:45:10.357Z,2.45
2023-05-24T11:47:40.577Z,3.80
2023-05-24T11:50:07.961Z,2.50
2023-05-24T11:52:40.419Z,2.60
2023-05-24T11:55:08.118Z,2.60
2023-05-24T11:57:40.343Z,2.83
2023-05-24T12:00:11.613Z,2.60
2023-05-24T12:02:40.583Z,2.72
2023-05-24T12:05:09.938Z,3.13
2023-05-24T12:07:38.016Z,2.60
2023-05-24T12:10:06.627Z,2.78
2023-05-24T12:12:45.274Z,4.45
2023-05-24T12:15:15.002Z,3.00
2023-05-24T12:17:42.055Z,3.00
2023-05-24T12:20:10.835Z,2.83
2023-05-24T12:22:38.050Z,2.83
2023-05-24T12:25:05.514Z,2.47
2023-05-24T12:27:34.070Z,3.00
2023-05-24T12:30:10.085Z,3.00
2023-05-24T12:32:41.777Z,3.45
2023-05-24T12:35:11.423Z,2.65
2023-05-24T12:37:39.942Z,2.85
2023-05-24T12:40:22.336Z,2.63
2023-05-24T12:42:59.454Z,2.70
2023-05-24T12:45:28.245Z,2.80
2023-05-24T12:47:56.697Z,2.88
2023-05-24T12:50:25.419Z,2.83
2023-05-24T12:52:53.541Z,3.08
2023-05-24T12:55:23.655Z,2.90
2023-05-24T12:57:54.577Z,3.35
2023-05-24T13:00:23.668Z,3.45
2023-05-24T13:02:53.223Z,3.33
2023-05-24T13:05:20.131Z,3.17
2023-05-24T13:07:47.008Z,3.30
2023-05-24T13:10:14.356Z,3.00
2023-05-24T13:12:42.000Z,3.05
2023-05-24T13:15:09.751Z,3.30
2023-05-24T13:17:36.750Z,3.25
2023-05-24T13:20:07.222Z,3.22
2023-05-24T13:22:36.062Z,3.15
2023-05-24T13:25:03.885Z,3.15
2023-05-24T13:27:31.269Z,3.22
2023-05-24T13:30:01.222Z,3.35
2023-05-24T13:32:28.537Z,2.92
2023-05-24T13:34:55.392Z,3.20
2023-05-24T13:37:22.485Z,3.15
2023-05-24T13:39:50.418Z,3.17
2023-05-24T13:42:17.504Z,3.50
2023-05-24T13:44:44.591Z,2.90
2023-05-24T13:47:13.439Z,3.55
2023-05-24T13:49:43.527Z,3.75
2023-05-24T13:52:10.319Z,3.40
2023-05-24T13:54:37.388Z,3.60
2023-05-24T13:57:14.601Z,3.20
2023-05-24T13:59:42.038Z,2.90
2023-05-24T14:02:09.313Z,3.78
2023-05-24T14:04:36.444Z,3.38
2023-05-24T14:07:04.084Z,3.42
2023-05-24T14:09:31.015Z,3.20
2023-05-24T14:11:58.211Z,3.42
2023-05-24T14:16:55.483Z,3.58
2023-05-24T14:19:22.749Z,3.17
2023-05-24T14:21:49.621Z,3.40
2023-05-24T14:24:16.648Z,3.25
2023-05-24T14:26:43.668Z,3.60
2023-05-24T14:29:11.594Z,3.83
2023-05-24T14:31:42.541Z,3.50
2023-05-24T14:34:11.288Z,3.50
2023-05-24T14:36:39.078Z,3.50
2023-05-24T14:39:09.168Z,3.28
2023-05-24T14:41:36.164Z,3.20
2023-05-24T14:44:02.963Z,3.50
2023-05-24T14:46:37.662Z,3.80
2023-05-24T14:49:05.012Z,3.40
2023-05-24T14:51:32.154Z,3.67
2023-05-24T14:53:59.658Z,3.50
2023-05-24T14:56:27.204Z,3.50
2023-05-24T14:58:55.148Z,3.55
2023-05-24T15:01:22.373Z,3.53
2023-05-24T15:03:49.687Z,3.45
2023-05-24T15:06:16.849Z,3.88
2023-05-24T15:08:44.030Z,4.22
2023-05-24T15:11:11.669Z,3.47
2023-05-24T15:13:38.901Z,3.78
2023-05-24T15:16:06.293Z,3.80
2023-05-24T15:18:33.164Z,3.47
2023-05-24T15:21:00.297Z,4.00
2023-05-24T15:23:27.457Z,3.42
2023-05-24T15:25:54.849Z,3.17
2023-05-24T15:28:23.480Z,3.47
2023-05-24T15:30:52.663Z,3.47
2023-05-24T15:33:19.566Z,3.60
2023-05-24T15:35:46.471Z,3.55
2023-05-24T15:38:18.005Z,3.60
2023-05-24T15:40:56.667Z,3.10
2023-05-24T15:43:23.722Z,3.60
2023-05-24T15:45:51.181Z,3.65
2023-05-24T15:48:18.436Z,3.38
2023-05-24T15:51:03.760Z,3.30
2023-05-24T15:53:32.682Z,3.08
2023-05-24T15:56:00.194Z,3.20
2023-05-24T15:58:27.877Z,3.25
2023-05-24T16:00:55.050Z,3.28
2023-05-24T16:03:22.072Z,3.40
2023-05-24T16:05:49.578Z,2.90
2023-05-24T16:08:17.208Z,3.30
2023-05-24T16:10:45.504Z,3.40
2023-05-24T16:13:12.548Z,3.42
2023-05-24T16:15:42.586Z,3.78
2023-05-24T16:18:09.650Z,3.47
2023-05-24T16:20:37.224Z,3.85
2023-05-24T16:23:07.573Z,3.65
2023-05-24T16:25:34.365Z,3.65
2023-05-24T16:28:01.295Z,3.55
2023-05-24T16:30:28.306Z,3.60
2023-05-24T16:32:55.425Z,3.58
2023-05-24T16:35:23.193Z,3.50
2023-05-24T16:37:51.705Z,3.50
2023-05-24T16:40:18.719Z,3.80
2023-05-24T16:42:46.550Z,3.50
2023-05-24T16:45:13.615Z,3.28
2023-05-24T16:47:40.838Z,3.78
2023-05-24T16:50:14.930Z,3.13
2023-05-24T16:52:43.266Z,3.20
2023-05-24T16:55:12.661Z,3.95
2023-05-24T16:57:40.028Z,3.22
2023-05-24T17:00:11.637Z,3.53
2023-05-24T17:02:38.797Z,3.47
2023-05-24T17:05:06.933Z,3.72
2023-05-24T17:07:34.062Z,4.43
2023-05-24T17:10:03.248Z,3.47
2023-05-24T17:12:30.273Z,3.42
2023-05-24T17:14:57.641Z,3.10
2023-05-24T17:17:24.651Z,3.25
2023-05-24T17:19:51.899Z,3.33
2023-05-24T17:22:18.875Z,3.60
2023-05-24T17:24:46.669Z,3.10
2023-05-24T17:27:13.688Z,3.35
2023-05-24T17:29:41.341Z,3.10
2023-05-24T17:32:09.121Z,3.20
2023-05-24T17:34:41.695Z,2.90
2023-05-24T17:37:08.653Z,3.28
2023-05-24T17:39:35.738Z,3.40
2023-05-24T17:42:03.156Z,3.08
2023-05-24T17:44:33.417Z,3.08
2023-05-24T17:47:01.878Z,3.40
2023-05-24T17:49:29.961Z,3.20
2023-05-24T17:52:00.513Z,3.35
2023-05-24T17:54:28.168Z,3.33
2023-05-24T17:56:55.083Z,3.35
2023-05-24T17:59:22.001Z,3.10
2023-05-24T18:01:49.223Z,3.33
2023-05-24T18:04:16.692Z,3.05
2023-05-24T18:06:44.103Z,3.20
2023-05-24T18:09:11.440Z,3.20
2023-05-24T18:11:39.292Z,3.38
2023-05-24T18:14:06.317Z,2.90
2023-05-24T18:16:33.396Z,3.42
2023-05-24T18:19:00.423Z,3.75
2023-05-24T18:21:27.953Z,3.60
2023-05-24T18:23:54.996Z,3.33
2023-05-24T18:26:22.179Z,3.42
2023-05-24T18:28:49.421Z,3.35
2023-05-24T18:31:16.542Z,3.50
2023-05-24T18:33:43.743Z,3.55
2023-05-24T18:36:12.944Z,3.58
2023-05-24T18:38:40.741Z,3.45
2023-05-24T18:41:09.762Z,3.47
2023-05-24T18:43:36.676Z,3.85
2023-05-24T18:46:03.802Z,3.70
2023-05-24T18:48:30.794Z,3.22
2023-05-24T18:50:58.168Z,3.67
2023-05-24T18:53:26.545Z,3.60
2023-05-24T18:55:53.676Z,3.78
2023-05-24T18:58:23.285Z,3.80
2023-05-24T19:00:50.775Z,3.80
2023-05-24T19:03:17.918Z,3.75
2023-05-24T19:05:45.129Z,4.03
2023-05-24T19:08:13.470Z,4.10
2023-05-24T19:10:40.478Z,3.80
2023-05-24T19:13:07.426Z,3.40
2023-05-24T19:15:37.410Z,3.35
2023-05-24T19:18:04.606Z,4.07
2023-05-24T19:20:31.491Z,4.13
2023-05-24T19:22:59.249Z,4.10
2023-05-24T19:25:26.522Z,3.42
2023-05-24T19:30:23.992Z,3.90
2023-05-24T19:32:51.237Z,4.28
2023-05-24T19:35:18.213Z,4.22
2023-05-24T19:37:45.239Z,3.67
2023-05-24T19:40:12.115Z,4.22
2023-05-24T19:42:38.958Z,4.80
2023-05-24T19:45:06.529Z,4.50
2023-05-24T19:47:41.617Z,5.07
2023-05-24T19:52:35.817Z,4.30
2023-05-24T19:55:02.946Z,4.30
2023-05-24T19:57:30.198Z,4.38
2023-05-24T19:59:57.484Z,4.00
2023-05-24T20:02:24.617Z,4.38
2023-05-24T20:04:51.458Z,3.97
2023-05-24T20:07:18.514Z,5.55
2023-05-24T20:09:45.567Z,4.80
2023-05-24T20:12:12.518Z,4.68
2023-05-24T20:14:39.464Z,4.25
2023-05-24T20:17:06.300Z,4.72
2023-05-24T20:19:33.412Z,4.63
2023-05-24T20:22:00.347Z,4.43
2023-05-24T20:24:38.910Z,4.00
2023-05-24T20:27:12.976Z,4.43
2023-05-24T20:29:40.545Z,4.40
2023-05-24T20:32:11.862Z,4.47
2023-05-24T20:34:41.823Z,4.68
2023-05-24T20:37:11.811Z,4.80
2023-05-24T20:39:38.754Z,4.57
2023-05-24T20:42:06.516Z,4.38
2023-05-24T20:44:33.482Z,4.80
2023-05-24T20:47:00.405Z,4.88
2023-05-24T20:49:27.642Z,4.20
2023-05-24T20:51:54.566Z,4.82
2023-05-24T20:54:21.556Z,4.18
2023-05-24T20:56:48.457Z,4.40
2023-05-24T20:59:15.561Z,4.25
2023-05-24T21:01:42.521Z,5.38
2023-05-24T21:04:09.771Z,4.70
2023-05-24T21:06:37.413Z,4.07
2023-05-24T21:09:04.553Z,5.13
2023-05-24T21:11:31.611Z,4.50
2023-05-24T21:13:58.812Z,4.40
2023-05-24T21:16:26.003Z,3.67
2023-05-24T21:18:53.470Z,3.95
2023-05-24T21:21:20.627Z,3.70
2023-05-24T21:23:47.524Z,4.13
2023-05-24T21:26:14.418Z,4.20
2023-05-24T21:28:41.330Z,3.72
2023-05-24T21:31:08.075Z,3.40
2023-05-24T21:33:36.390Z,3.75
2023-05-24T21:36:04.146Z,4.82
2023-05-24T21:38:31.161Z,4.03
2023-05-24T21:40:58.087Z,3.47
2023-05-24T21:43:25.056Z,3.83
2023-05-24T21:45:51.995Z,3.78
2023-05-24T21:48:19.137Z,4.15
2023-05-24T21:50:46.300Z,3.33
2023-05-24T21:53:13.185Z,3.45
2023-05-24T21:55:39.955Z,3.42
2023-05-24T21:58:06.907Z,3.40
2023-05-24T22:00:34.002Z,3.15
2023-05-24T22:03:01.064Z,3.58
2023-05-24T22:05:28.302Z,3.20
2023-05-24T22:07:55.526Z,3.40
2023-05-24T22:10:22.496Z,3.22
2023-05-24T22:12:49.593Z,3.40
2023-05-24T22:15:16.871Z,3.28
2023-05-24T22:17:53.347Z,2.63
2023-05-24T22:20:20.722Z,2.80
2023-05-24T22:22:53.619Z,2.90
2023-05-24T22:25:20.993Z,3.35
2023-05-24T22:27:51.504Z,2.78
2023-05-24T22:30:18.380Z,2.63
2023-05-24T22:32:45.398Z,3.20
2023-05-24T22:35:12.427Z,2.80
2023-05-24T22:37:39.269Z,3.30
2023-05-24T22:40:07.757Z,3.10
2023-05-24T22:42:34.804Z,2.63
2023-05-24T22:45:03.922Z,3.22
2023-05-24T22:47:33.630Z,3.15
2023-05-24T22:50:02.248Z,2.95
2023-05-24T22:52:30.495Z,2.85
2023-05-24T22:54:57.468Z,2.72
2023-05-24T22:57:26.442Z,3.00
2023-05-24T22:59:53.367Z,3.03
2023-05-24T23:02:20.335Z,3.13
2023-05-24T23:04:48.665Z,2.70
2023-05-24T23:07:16.049Z,2.55
2023-05-24T23:09:44.053Z,2.80
2023-05-24T23:12:11.873Z,3.35
2023-05-24T23:14:41.918Z,2.65
2023-05-24T23:17:10.707Z,2.67
2023-05-24T23:19:42.668Z,3.13
2023-05-24T23:22:18.653Z,2.70
2023-05-24T23:24:47.679Z,2.70
2023-05-24T23:27:15.211Z,2.15
2023-05-24T23:29:42.245Z,2.92
2023-05-24T23:32:09.621Z,2.80
2023-05-24T23:34:37.456Z,2.53
2023-05-24T23:37:05.666Z,2.47
2023-05-24T23:39:32.739Z,2.90
2023-05-24T23:41:59.517Z,2.38
2023-05-24T23:44:26.553Z,3.00
2023-05-24T23:46:54.125Z,2.55
2023-05-24T23:49:21.536Z,2.80
2023-05-24T23:51:48.656Z,2.60
2023-05-24T23:54:15.946Z,2.60
2023-05-24T23:56:45.738Z,2.97
2023-05-24T23:59:15.092Z,2.65
